Time;durP1;ratioP1;P1;durP2;ratioP2;P2;SDS_P1;SDS_P2;PMS_P1;PMS_P2;Temp;Humidity;BMP_temperature;BMP_pressure;BME280_temperature;BME280_humidity;BME280_pressure;Samples;Min_cycle;Max_cycle;Signal;HPM_P1;HPM_P2
2021/09/12 00:01:23;;;;;;;30.73;27.20;;;17.40;99.90;;;;;;5059864;28;20580;-65
2021/09/12 00:03:52;;;;;;;31.97;27.10;;;17.40;99.90;;;;;;5060629;28;20479;-65
2021/09/12 00:06:19;;;;;;;30.37;27.37;;;17.40;99.90;;;;;;5060075;28;20486;-65
2021/09/12 00:08:46;;;;;;;31.63;28.37;;;17.40;99.90;;;;;;5060050;28;20472;-65
2021/09/12 00:11:13;;;;;;;30.87;27.60;;;17.40;99.90;;;;;;5059812;28;20527;-65
2021/09/12 00:13:41;;;;;;;29.87;26.73;;;17.50;99.90;;;;;;5060200;28;20489;-65
2021/09/12 00:16:08;;;;;;;30.63;26.83;;;17.50;99.90;;;;;;5059812;28;20466;-65
2021/09/12 00:18:37;;;;;;;33.37;28.63;;;17.50;99.90;;;;;;5059781;28;20494;-65
2021/09/12 00:21:04;;;;;;;32.07;28.77;;;17.40;99.90;;;;;;5059747;28;20601;-65
2021/09/12 00:23:31;;;;;;;33.57;28.10;;;17.40;99.90;;;;;;5059912;28;20493;-65
2021/09/12 00:26:06;;;;;;;30.00;26.80;;;17.40;99.90;;;;;;5059379;28;20524;-65
2021/09/12 00:28:33;;;;;;;38.27;29.83;;;17.40;99.90;;;;;;5059732;28;20737;-65
2021/09/12 00:31:00;;;;;;;31.83;28.37;;;17.30;99.90;;;;;;5059748;28;20548;-65
2021/09/12 00:33:27;;;;;;;30.00;26.90;;;17.30;99.90;;;;;;5060084;28;20494;-65
2021/09/12 00:35:55;;;;;;;32.47;25.30;;;17.30;99.90;;;;;;5059862;28;20466;-65
2021/09/12 00:38:22;;;;;;;28.67;25.70;;;17.30;99.90;;;;;;5059387;28;20832;-65
2021/09/12 00:40:51;;;;;;;30.07;26.90;;;17.30;99.90;;;;;;5059112;28;20494;-65
2021/09/12 00:43:20;;;;;;;30.43;27.13;;;17.30;99.90;;;;;;5059715;28;20490;-65
2021/09/12 00:45:53;;;;;;;29.53;25.63;;;17.30;99.90;;;;;;5059833;28;20523;-65
2021/09/12 00:48:22;;;;;;;34.20;27.20;;;17.20;99.90;;;;;;5059488;28;20557;-65
2021/09/12 00:50:49;;;;;;;31.63;28.43;;;17.20;99.90;;;;;;5059298;28;20517;-65
2021/09/12 00:53:18;;;;;;;29.43;26.17;;;17.30;99.90;;;;;;5059383;28;20554;-65
2021/09/12 00:55:46;;;;;;;27.20;24.40;;;17.30;99.90;;;;;;5059331;28;20852;-65
2021/09/12 00:58:15;;;;;;;31.20;25.90;;;17.30;99.90;;;;;;5059076;28;20545;-65
2021/09/12 01:00:45;;;;;;;28.57;25.47;;;17.30;99.90;;;;;;5059081;28;20500;-65
2021/09/12 01:03:13;;;;;;;28.97;24.57;;;17.30;99.90;;;;;;5059337;28;20437;-65
2021/09/12 01:05:43;;;;;;;30.90;25.60;;;17.30;99.90;;;;;;5059167;28;20466;-65
2021/09/12 01:08:10;;;;;;;29.97;25.10;;;17.30;99.90;;;;;;5058564;28;20527;-64
2021/09/12 01:10:40;;;;;;;27.50;24.60;;;17.20;99.90;;;;;;5058532;28;20490;-65
2021/09/12 01:13:11;;;;;;;28.07;24.33;;;17.20;99.90;;;;;;5059274;28;20908;-65
2021/09/12 01:15:37;;;;;;;26.27;23.30;;;17.20;99.90;;;;;;5059308;28;20880;-65
2021/09/12 01:18:04;;;;;;;28.67;25.60;;;17.20;99.90;;;;;;5058595;28;20728;-65
2021/09/12 01:20:32;;;;;;;27.90;23.83;;;17.30;99.90;;;;;;5058616;28;20517;-65
2021/09/12 01:22:59;;;;;;;24.63;21.90;;;17.30;99.90;;;;;;5058578;28;20501;-65
2021/09/12 01:25:28;;;;;;;29.00;23.73;;;17.20;99.90;;;;;;5058207;28;20490;-65
2021/09/12 01:27:55;;;;;;;28.67;23.60;;;17.20;99.90;;;;;;5058291;28;20490;-65
2021/09/12 01:30:22;;;;;;;29.57;25.30;;;17.20;99.90;;;;;;5058651;28;20462;-65
2021/09/12 01:32:49;;;;;;;29.20;23.77;;;17.20;99.90;;;;;;5058329;28;20494;-65
2021/09/12 01:35:15;;;;;;;27.13;23.80;;;17.20;99.90;;;;;;5058619;28;20494;-65
2021/09/12 01:37:44;;;;;;;25.40;22.70;;;17.20;99.90;;;;;;5058741;28;20495;-65
2021/09/12 01:40:13;;;;;;;27.00;24.20;;;17.10;99.90;;;;;;5058001;28;20462;-65
2021/09/12 01:42:44;;;;;;;26.87;22.53;;;17.10;99.90;;;;;;5058554;28;20502;-65
2021/09/12 01:45:11;;;;;;;26.00;23.20;;;17.10;99.90;;;;;;5058458;28;20886;-65
2021/09/12 01:47:38;;;;;;;25.20;21.80;;;17.10;99.90;;;;;;5058356;28;20506;-65
2021/09/12 01:50:07;;;;;;;29.70;23.07;;;17.00;99.90;;;;;;5057722;28;20703;-65
2021/09/12 01:52:34;;;;;;;27.03;24.17;;;17.00;99.90;;;;;;5057659;28;20465;-65
2021/09/12 01:55:01;;;;;;;26.83;23.90;;;17.00;99.90;;;;;;5058090;28;20498;-65
2021/09/12 01:57:28;;;;;;;29.63;24.37;;;17.00;99.90;;;;;;5058280;28;20540;-65
2021/09/12 01:59:59;;;;;;;27.93;23.83;;;16.90;99.90;;;;;;5058220;28;20477;-66
2021/09/12 02:02:26;;;;;;;28.43;24.33;;;17.00;99.90;;;;;;5057546;28;20529;-66
2021/09/12 02:04:53;;;;;;;27.63;24.30;;;17.00;99.90;;;;;;5057850;28;20505;-65
2021/09/12 02:07:20;;;;;;;30.57;25.20;;;16.90;99.90;;;;;;5057952;28;20466;-65
2021/09/12 02:09:47;;;;;;;31.90;24.83;;;16.90;99.90;;;;;;5057846;28;20455;-65
2021/09/12 02:12:14;;;;;;;31.10;25.17;;;17.00;99.90;;;;;;5057742;28;20464;-65
2021/09/12 02:14:41;;;;;;;29.70;24.90;;;16.90;99.90;;;;;;5057460;28;20469;-65
2021/09/12 02:17:09;;;;;;;29.97;25.90;;;16.80;99.90;;;;;;5058048;28;20503;-65
2021/09/12 02:19:36;;;;;;;28.77;22.60;;;16.90;99.90;;;;;;5057718;28;20832;-65
2021/09/12 02:22:04;;;;;;;30.20;22.77;;;16.80;99.90;;;;;;5057364;28;20585;-65
2021/09/12 02:24:31;;;;;;;35.43;26.03;;;16.70;99.90;;;;;;5056979;28;20536;-65
2021/09/12 02:26:58;;;;;;;32.80;26.33;;;16.80;99.90;;;;;;5057403;28;20486;-66
2021/09/12 02:29:25;;;;;;;26.87;23.90;;;16.70;99.90;;;;;;5057534;28;20941;-66
2021/09/12 02:31:53;;;;;;;32.33;24.73;;;16.70;99.90;;;;;;5057160;28;21105;-66
2021/09/12 02:34:21;;;;;;;29.80;25.00;;;16.70;99.90;;;;;;5057447;28;20553;-66
2021/09/12 02:36:48;;;;;;;30.83;25.27;;;16.60;99.90;;;;;;5057362;28;20815;-66
2021/09/12 02:39:15;;;;;;;31.87;26.70;;;16.60;99.90;;;;;;5057341;28;20473;-66
2021/09/12 02:41:42;;;;;;;32.13;25.33;;;16.60;99.90;;;;;;5057290;28;20529;-66
2021/09/12 02:44:09;;;;;;;30.63;25.30;;;16.60;99.90;;;;;;5056784;28;20524;-66
2021/09/12 02:46:39;;;;;;;30.70;25.57;;;16.50;99.90;;;;;;5057203;28;20462;-66
2021/09/12 02:49:06;;;;;;;32.07;26.93;;;16.50;99.90;;;;;;5057194;28;20498;-66
2021/09/12 02:51:34;;;;;;;32.20;28.07;;;16.50;99.90;;;;;;5057316;28;20732;-66
2021/09/12 02:54:01;;;;;;;31.77;27.17;;;16.50;99.90;;;;;;5056682;28;20465;-66
2021/09/12 02:56:28;;;;;;;30.90;25.77;;;16.50;99.90;;;;;;5056761;28;20490;-66
2021/09/12 02:58:55;;;;;;;31.30;26.07;;;16.50;99.90;;;;;;5057600;28;20476;-66
2021/09/12 03:01:22;;;;;;;32.80;27.97;;;16.50;99.90;;;;;;5056232;28;20494;-66
2021/09/12 03:03:49;;;;;;;34.60;27.13;;;16.50;99.90;;;;;;5056879;28;20462;-66
2021/09/12 03:06:16;;;;;;;30.73;26.73;;;16.50;99.90;;;;;;5056633;28;20473;-66
2021/09/12 03:08:44;;;;;;;31.13;27.33;;;16.40;99.90;;;;;;5056496;28;20838;-66
2021/09/12 03:11:11;;;;;;;32.20;27.30;;;16.50;99.90;;;;;;5056668;28;20932;-66
2021/09/12 03:13:38;;;;;;;31.20;26.80;;;16.50;99.90;;;;;;5056873;28;20493;-66
2021/09/12 03:16:05;;;;;;;32.60;27.10;;;16.50;99.90;;;;;;5056420;28;20523;-65
2021/09/12 03:18:33;;;;;;;35.77;27.17;;;16.50;99.90;;;;;;5056722;28;20497;-66
2021/09/12 03:21:02;;;;;;;34.17;27.67;;;16.50;99.90;;;;;;5056956;28;20589;-66
2021/09/12 03:23:29;;;;;;;32.20;27.10;;;16.60;99.90;;;;;;5057127;28;20458;-66
2021/09/12 03:25:57;;;;;;;34.17;28.50;;;16.60;99.90;;;;;;5056284;28;20510;-66
2021/09/12 03:28:24;;;;;;;29.90;26.80;;;16.50;99.90;;;;;;5056815;28;20501;-66
2021/09/12 03:30:51;;;;;;;32.93;28.40;;;16.50;99.90;;;;;;5056837;28;20936;-66
2021/09/12 03:33:18;;;;;;;34.10;27.27;;;16.50;99.90;;;;;;5057097;28;20543;-66
2021/09/12 03:35:45;;;;;;;31.00;26.80;;;16.50;99.90;;;;;;5056969;28;20461;-66
2021/09/12 03:38:12;;;;;;;34.40;28.60;;;16.60;99.90;;;;;;5056758;28;20454;-66
2021/09/12 03:40:39;;;;;;;34.83;27.30;;;16.60;99.90;;;;;;5056654;28;20507;-66
2021/09/12 03:43:08;;;;;;;32.67;28.47;;;16.60;99.90;;;;;;5056446;28;20494;-66
2021/09/12 03:45:35;;;;;;;36.47;30.57;;;16.60;99.90;;;;;;5056587;28;20950;-66
2021/09/12 03:48:06;;;;;;;32.60;26.90;;;16.60;99.90;;;;;;5056302;28;20466;-66
2021/09/12 03:50:33;;;;;;;32.77;29.20;;;16.60;99.90;;;;;;5056747;28;20462;-66
2021/09/12 03:53:01;;;;;;;32.93;27.47;;;16.60;99.90;;;;;;5056514;28;20810;-66
2021/09/12 03:55:27;;;;;;;35.10;29.40;;;16.60;99.90;;;;;;5056342;28;20497;-66
2021/09/12 03:57:54;;;;;;;32.27;28.73;;;16.60;99.90;;;;;;5056542;28;20490;-66
2021/09/12 04:00:23;;;;;;;32.60;27.50;;;16.60;99.90;;;;;;5056496;28;20494;-66
2021/09/12 04:02:50;;;;;;;33.60;28.87;;;16.70;99.90;;;;;;5056256;28;20536;-66
2021/09/12 04:05:17;;;;;;;30.07;26.80;;;16.70;99.90;;;;;;5056377;28;20833;-66
2021/09/12 04:07:44;;;;;;;33.20;26.30;;;16.70;99.90;;;;;;5056574;28;20939;-66
2021/09/12 04:10:11;;;;;;;33.80;30.00;;;16.70;99.90;;;;;;5055899;28;20518;-66
2021/09/12 04:12:38;;;;;;;29.77;25.93;;;16.70;99.90;;;;;;5057920;28;20486;-66
2021/09/12 04:15:06;;;;;;;35.90;27.60;;;16.70;99.90;;;;;;5060025;28;20934;-66
2021/09/12 04:17:35;;;;;;;32.53;28.33;;;16.70;99.90;;;;;;5060209;28;20454;-66
2021/09/12 04:20:02;;;;;;;32.70;29.20;;;16.70;99.90;;;;;;5059773;28;20500;-66
2021/09/12 04:22:29;;;;;;;28.87;25.57;;;16.80;99.90;;;;;;5059992;28;20551;-66
2021/09/12 04:24:56;;;;;;;29.77;26.87;;;16.70;99.90;;;;;;5059490;28;20529;-66
2021/09/12 04:27:23;;;;;;;33.27;26.83;;;16.70;99.90;;;;;;5059955;28;20458;-66
2021/09/12 04:29:50;;;;;;;36.03;26.53;;;16.60;99.90;;;;;;5060110;28;20751;-66
2021/09/12 04:32:17;;;;;;;34.00;26.20;;;16.60;99.90;;;;;;5059522;28;20952;-66
2021/09/12 04:34:48;;;;;;;33.27;28.20;;;16.60;99.90;;;;;;5059728;28;20888;-65
2021/09/12 04:37:16;;;;;;;33.73;27.50;;;16.70;99.90;;;;;;5059846;28;20520;-65
2021/09/12 04:39:43;;;;;;;28.87;25.83;;;16.60;99.90;;;;;;5059596;28;20516;-66
2021/09/12 04:42:10;;;;;;;42.87;29.63;;;16.60;99.90;;;;;;5059088;28;20525;-66
2021/09/12 04:44:37;;;;;;;33.77;27.10;;;16.70;99.90;;;;;;5059553;28;20888;-66
2021/09/12 04:47:04;;;;;;;34.60;29.07;;;16.70;99.90;;;;;;5059346;28;20493;-66
2021/09/12 04:49:34;;;;;;;34.90;28.40;;;16.70;99.90;;;;;;5059846;28;20490;-66
2021/09/12 04:52:03;;;;;;;40.27;30.60;;;16.70;99.90;;;;;;5058804;28;20482;-66
2021/09/12 04:54:32;;;;;;;34.13;28.87;;;16.70;99.90;;;;;;5059616;28;20770;-66
2021/09/12 04:56:59;;;;;;;35.30;28.80;;;16.70;99.90;;;;;;5059181;28;20477;-66
2021/09/12 04:59:26;;;;;;;37.57;29.07;;;16.70;99.90;;;;;;5059401;28;20473;-66
2021/09/12 05:01:53;;;;;;;35.70;30.40;;;16.60;99.90;;;;;;5059364;28;20529;-66
2021/09/12 05:04:20;;;;;;;37.50;30.70;;;16.60;99.90;;;;;;5059376;28;20462;-66
2021/09/12 05:06:50;;;;;;;34.23;29.30;;;16.60;99.90;;;;;;5059125;28;20531;-66
2021/09/12 05:09:18;;;;;;;35.73;30.13;;;16.70;99.90;;;;;;5059095;28;20549;-66
2021/09/12 05:11:45;;;;;;;34.40;28.80;;;16.60;99.90;;;;;;5059222;28;20802;-66
2021/09/12 05:14:12;;;;;;;35.27;29.50;;;16.60;99.90;;;;;;5058967;28;20501;-66
2021/09/12 05:16:39;;;;;;;31.97;27.50;;;16.60;99.90;;;;;;5058680;28;20497;-66
2021/09/12 05:19:05;;;;;;;32.43;28.73;;;16.60;99.90;;;;;;5058977;28;20462;-66
2021/09/12 05:21:33;;;;;;;35.80;29.43;;;16.60;99.90;;;;;;5058793;28;20490;-66
2021/09/12 05:24:00;;;;;;;34.10;28.33;;;16.60;99.90;;;;;;5058140;28;20436;-66
2021/09/12 05:26:28;;;;;;;32.13;28.40;;;16.60;99.90;;;;;;5058633;28;20772;-66
2021/09/12 05:28:55;;;;;;;31.43;28.13;;;16.60;99.90;;;;;;5058643;28;20839;-66
2021/09/12 05:31:22;;;;;;;35.17;25.77;;;16.60;99.90;;;;;;5058752;28;20498;-66
2021/09/12 05:33:49;;;;;;;34.23;27.20;;;16.60;99.90;;;;;;5058745;28;20498;-66
2021/09/12 05:36:16;;;;;;;29.30;26.07;;;16.50;99.90;;;;;;5058262;28;20497;-66
2021/09/12 05:38:43;;;;;;;31.60;26.60;;;16.60;99.90;;;;;;5058651;28;20463;-66
2021/09/12 05:41:10;;;;;;;35.57;27.33;;;16.60;99.90;;;;;;5058414;28;20854;-66
2021/09/12 05:43:45;;;;;;;25.30;22.53;;;16.60;99.90;;;;;;5058805;28;20495;-66
2021/09/12 05:46:12;;;;;;;22.77;20.30;;;16.50;99.90;;;;;;5058167;28;20469;-66
2021/09/12 05:48:39;;;;;;;24.50;20.70;;;16.50;99.90;;;;;;5058092;28;20846;-66
2021/09/12 05:51:05;;;;;;;23.17;20.70;;;16.40;99.90;;;;;;5058600;28;20497;-66
2021/09/12 05:53:32;;;;;;;22.20;19.77;;;16.40;99.90;;;;;;5058659;28;20493;-66
2021/09/12 05:55:59;;;;;;;23.40;20.97;;;16.40;99.90;;;;;;5058378;28;20518;-66
2021/09/12 05:58:27;;;;;;;25.20;19.83;;;16.40;99.90;;;;;;5058042;28;20763;-66
2021/09/12 06:00:55;;;;;;;21.33;19.23;;;16.40;99.90;;;;;;5057990;28;20525;-66
2021/09/12 06:03:25;;;;;;;20.13;18.13;;;16.40;99.90;;;;;;5058017;28;21009;-65
2021/09/12 06:05:52;;;;;;;20.20;18.07;;;16.40;99.90;;;;;;5058193;28;20783;-66
2021/09/12 06:08:19;;;;;;;18.40;16.50;;;16.50;99.90;;;;;;5057622;28;20472;-66
2021/09/12 06:10:46;;;;;;;19.13;17.17;;;16.40;99.90;;;;;;5050539;28;20506;-66
2021/09/12 06:13:13;;;;;;;19.97;17.87;;;16.50;99.90;;;;;;5042152;28;20512;-66
2021/09/12 06:15:40;;;;;;;19.30;17.27;;;16.50;99.90;;;;;;5045706;28;20486;-66
2021/09/12 06:18:09;;;;;;;20.03;16.67;;;16.50;99.90;;;;;;5057402;28;20466;-66
2021/09/12 06:20:36;;;;;;;21.10;16.73;;;16.40;99.90;;;;;;5057906;28;20501;-66
2021/09/12 06:23:03;;;;;;;22.00;15.60;;;16.40;99.90;;;;;;5057437;28;20953;-66
2021/09/12 06:25:30;;;;;;;17.00;15.40;;;16.50;99.90;;;;;;5057251;28;20525;-66
2021/09/12 06:27:57;;;;;;;14.27;12.70;;;16.50;99.90;;;;;;5057944;28;20894;-66
2021/09/12 06:30:24;;;;;;;16.00;13.10;;;16.50;99.90;;;;;;5057082;28;20494;-66
2021/09/12 06:32:54;;;;;;;19.00;12.20;;;16.60;99.90;;;;;;5057150;28;20485;-66
2021/09/12 06:35:23;;;;;;;11.70;10.50;;;16.70;1.00;;;;;;5057402;28;20494;-65
2021/09/12 06:37:50;;;;;;;10.73;9.63;;;16.90;99.90;;;;;;5057519;28;20441;-65
2021/09/12 06:40:17;;;;;;;10.03;8.83;;;17.10;99.90;;;;;;5057557;28;20462;-65
2021/09/12 06:42:47;;;;;;;9.13;8.30;;;17.20;99.90;;;;;;5057221;28;20521;-65
2021/09/12 06:45:14;;;;;;;9.17;8.20;;;17.10;99.90;;;;;;5057483;28;20462;-65
2021/09/12 06:47:42;;;;;;;11.07;8.60;;;17.20;99.90;;;;;;5057213;28;20501;-65
2021/09/12 06:50:10;;;;;;;9.40;8.50;;;17.00;91.60;;;;;;5057118;28;20462;-65
2021/09/12 06:52:38;;;;;;;7.93;7.03;;;17.20;99.90;;;;;;5057039;28;20466;-65
2021/09/12 06:55:08;;;;;;;8.50;7.03;;;17.40;1.40;;;;;;5056272;28;20478;-65
2021/09/12 06:57:35;;;;;;;8.37;5.97;;;17.50;1.00;;;;;;5054120;28;20501;-64
2021/09/12 07:00:02;;;;;;;8.00;6.17;;;17.60;1.00;;;;;;5055881;28;20497;-64
2021/09/12 07:02:29;;;;;;;8.17;5.90;;;17.50;1.00;;;;;;5056261;28;20525;-64
2021/09/12 07:04:59;;;;;;;9.60;7.47;;;17.60;1.00;;;;;;5056884;28;20795;-64
2021/09/12 07:07:30;;;;;;;7.83;6.97;;;17.50;1.00;;;;;;5056770;28;20846;-64
2021/09/12 07:09:58;;;;;;;6.43;5.83;;;17.60;1.00;;;;;;5057087;28;20512;-63
2021/09/12 07:12:25;;;;;;;10.20;6.70;;;17.90;1.00;;;;;;5056570;28;20458;-63
2021/09/12 07:14:52;;;;;;;7.90;6.43;;;18.00;1.00;;;;;;5056679;28;20497;-63
2021/09/12 07:17:20;;;;;;;10.27;6.27;;;18.00;1.00;;;;;;5056959;28;20489;-62
2021/09/12 07:19:47;;;;;;;7.97;6.70;;;18.00;1.00;;;;;;5057151;28;20750;-62
2021/09/12 07:22:14;;;;;;;7.57;6.40;;;18.10;1.00;;;;;;5056846;28;20493;-62
2021/09/12 07:24:41;;;;;;;11.90;6.63;;;18.20;1.00;;;;;;5056678;28;20496;-62
2021/09/12 07:27:14;;;;;;;9.80;7.20;;;18.10;1.00;;;;;;5056960;28;20553;-61
2021/09/12 07:29:46;;;;;;;8.73;7.30;;;18.00;1.00;;;;;;5056384;28;20462;-61
2021/09/12 07:32:15;;;;;;;6.77;6.07;;;17.70;1.00;;;;;;5056823;28;20520;-61
2021/09/12 07:34:43;;;;;;;9.53;7.47;;;17.50;1.00;;;;;;5056469;28;20469;-61
2021/09/12 07:37:12;;;;;;;11.73;7.90;;;17.40;1.00;;;;;;5056304;28;20494;-61
2021/09/12 07:39:39;;;;;;;11.80;7.90;;;17.30;1.00;;;;;;5056791;28;20465;-61
2021/09/12 07:42:06;;;;;;;9.63;8.40;;;17.30;1.00;;;;;;5056640;28;20869;-61
2021/09/12 07:44:35;;;;;;;11.10;8.40;;;17.20;1.00;;;;;;5054545;28;20462;-61
2021/09/12 07:47:02;;;;;;;11.13;8.70;;;17.20;1.00;;;;;;5052874;28;20477;-60
2021/09/12 07:49:29;;;;;;;10.63;9.50;;;17.10;1.00;;;;;;5053408;28;20843;-60
2021/09/12 07:51:55;;;;;;;10.87;9.33;;;17.20;1.00;;;;;;5051949;28;20494;-60
2021/09/12 07:54:22;;;;;;;10.93;8.23;;;17.30;1.00;;;;;;5057813;28;20534;-60
2021/09/12 07:56:52;;;;;;;10.87;9.77;;;17.40;1.00;;;;;;5059467;28;20516;-60
2021/09/12 07:59:19;;;;;;;14.13;9.50;;;17.50;1.00;;;;;;5059942;28;20469;-60
2021/09/12 08:01:51;;;;;;;13.93;8.53;;;17.50;1.00;;;;;;5059659;28;20548;-60
2021/09/12 08:04:18;;;;;;;11.70;9.50;;;17.70;1.00;;;;;;5058863;28;20999;-59
2021/09/12 08:06:45;;;;;;;12.10;8.77;;;17.70;1.00;;;;;;5059052;28;20851;-59
2021/09/12 08:09:12;;;;;;;10.97;8.33;;;17.80;1.00;;;;;;5060206;28;20497;-58
2021/09/12 08:11:39;;;;;;;8.50;7.70;;;18.00;1.00;;;;;;5059366;28;20520;-59
2021/09/12 08:14:06;;;;;;;10.20;7.80;;;18.60;1.00;;;;;;5058590;28;20489;-58
2021/09/12 08:16:33;;;;;;;11.70;7.27;;;19.20;1.00;;;;;;5059920;28;20873;-58
2021/09/12 08:19:04;;;;;;;11.43;7.70;;;19.80;1.00;;;;;;5057882;28;20490;-58
2021/09/12 08:21:31;;;;;;;9.73;6.80;;;20.30;1.00;;;;;;5059762;28;20626;-58
2021/09/12 08:23:58;;;;;;;7.73;6.73;;;20.70;1.00;;;;;;5060074;28;20490;-58
2021/09/12 08:26:28;;;;;;;11.10;7.53;;;21.30;1.00;;;;;;5058843;28;20577;-58
2021/09/12 08:28:57;;;;;;;7.60;6.47;;;21.60;1.00;;;;;;5059084;28;20508;-58
2021/09/12 08:31:27;;;;;;;7.73;7.00;;;21.40;1.00;;;;;;5058721;28;20496;-55
2021/09/12 08:33:56;;;;;;;8.80;6.70;;;21.00;1.00;;;;;;5059057;28;20489;-55
2021/09/12 08:36:25;;;;;;;7.47;6.67;;;20.50;1.00;;;;;;5057970;28;20489;-51
2021/09/12 08:38:55;;;;;;;9.77;6.97;;;20.10;1.00;;;;;;5057012;28;20916;-57
2021/09/12 08:41:22;;;;;;;10.03;6.90;;;20.00;1.00;;;;;;5053996;28;20560;-56
2021/09/12 08:43:51;;;;;;;8.83;6.30;;;19.90;1.00;;;;;;5057391;28;20528;-55
2021/09/12 08:46:19;;;;;;;8.60;6.10;;;19.90;1.00;;;;;;5056730;28;20462;-53
2021/09/12 08:48:48;;;;;;;9.63;5.33;;;19.90;1.00;;;;;;5055513;28;20583;-52
2021/09/12 08:51:19;;;;;;;5.90;4.90;;;19.80;1.00;;;;;;5055325;28;20462;-55
2021/09/12 08:53:49;;;;;;;8.43;6.80;;;19.50;1.00;;;;;;5057733;28;20501;-52
2021/09/12 08:56:17;;;;;;;8.77;6.37;;;19.30;1.00;;;;;;5054606;28;20927;-52
2021/09/12 08:58:44;;;;;;;12.83;7.27;;;19.80;1.00;;;;;;5054788;28;20474;-47
2021/09/12 09:01:16;;;;;;;9.37;6.13;;;20.20;1.00;;;;;;5061416;28;20465;-55
2021/09/12 09:03:45;;;;;;;7.93;5.47;;;20.20;1.00;;;;;;5057925;28;20906;-50
2021/09/12 09:06:17;;;;;;;6.87;5.37;;;20.50;1.00;;;;;;5060831;28;20545;-54
2021/09/12 09:08:54;;;;;;;6.80;5.10;;;21.10;1.00;;;;;;5057224;28;20888;-55
2021/09/12 09:11:32;;;;;;;7.40;5.80;;;21.20;99.90;;;;;;5054912;28;20450;-54
2021/09/12 09:14:14;;;;;;;6.93;5.50;;;21.20;99.90;;;;;;5057594;28;20768;-50
2021/09/12 09:16:42;;;;;;;6.47;5.10;;;21.20;99.90;;;;;;5057325;28;20505;-49
2021/09/12 09:19:14;;;;;;;7.97;5.77;;;20.70;99.90;;;;;;5058537;28;20500;-55
2021/09/12 09:21:44;;;;;;;14.17;5.30;;;20.80;99.90;;;;;;5060510;28;20462;-55
2021/09/12 09:24:21;;;;;;;10.07;5.90;;;20.60;99.90;;;;;;5062751;28;20494;-50
2021/09/12 09:26:50;;;;;;;9.13;5.53;;;20.40;99.90;;;;;;5063781;28;20461;-49
2021/09/12 09:29:23;;;;;;;5.57;5.07;;;20.60;99.90;;;;;;5059561;28;20468;-54
2021/09/12 09:32:05;;;;;;;8.03;6.90;;;20.40;1.00;;;;;;5057513;28;20467;-54
2021/09/12 09:34:33;;;;;;;7.23;5.63;;;20.70;99.90;;;;;;5060910;28;20488;-57
2021/09/12 09:37:11;;;;;;;9.33;6.13;;;20.50;99.90;;;;;;5056487;28;20501;-53
2021/09/12 09:39:47;;;;;;;6.03;5.43;;;20.70;99.90;;;;;;5057966;28;20494;-56
2021/09/12 09:42:35;;;;;;;9.13;5.40;;;20.60;99.90;;;;;;5057044;28;20557;-57
2021/09/12 09:45:11;;;;;;;8.77;5.77;;;20.80;99.90;;;;;;5057496;28;20544;-52
2021/09/12 09:47:42;;;;;;;6.87;5.57;;;20.50;99.90;;;;;;5057521;28;20461;-50
2021/09/12 09:50:13;;;;;;;5.37;4.87;;;20.30;99.90;;;;;;5065450;28;20494;-53
2021/09/12 09:52:41;;;;;;;8.60;5.00;;;20.70;99.90;;;;;;5058080;28;20557;-54
2021/09/12 09:55:14;;;;;;;7.50;5.33;;;20.90;99.90;;;;;;5058174;28;20955;-53
2021/09/12 09:57:47;;;;;;;10.47;6.60;;;21.30;99.90;;;;;;5057983;28;20509;-57
2021/09/12 10:00:15;;;;;;;8.17;6.93;;;21.30;99.90;;;;;;5057835;28;20469;-54
2021/09/12 10:02:43;;;;;;;10.77;7.33;;;21.30;99.90;;;;;;5062406;28;20597;-54
2021/09/12 10:05:19;;;;;;;6.67;6.07;;;21.60;99.90;;;;;;5057549;28;21023;-56
2021/09/12 10:07:49;;;;;;;7.53;4.90;;;21.60;99.90;;;;;;5043150;28;20477;-55
2021/09/12 10:10:21;;;;;;;9.43;6.23;;;21.40;99.90;;;;;;5048683;28;20505;-53
2021/09/12 10:12:53;;;;;;;9.20;7.00;;;21.10;99.90;;;;;;5057867;28;20544;-57
2021/09/12 10:15:25;;;;;;;8.10;7.27;;;21.00;99.90;;;;;;5056996;28;20896;-55
2021/09/12 10:17:53;;;;;;;6.97;6.30;;;21.00;99.90;;;;;;5057691;28;20458;-53
2021/09/12 10:20:26;;;;;;;8.03;6.80;;;21.00;99.90;;;;;;5062136;28;20931;-47
2021/09/12 10:22:55;;;;;;;7.37;6.40;;;21.00;99.90;;;;;;5066210;28;20541;-50
2021/09/12 10:25:29;;;;;;;6.47;5.83;;;20.90;99.90;;;;;;5057196;28;20522;-52
2021/09/12 10:28:03;;;;;;;10.53;6.37;;;21.40;99.90;;;;;;5057525;28;20524;-48
2021/09/12 10:30:36;;;;;;;6.47;5.67;;;21.60;99.90;;;;;;5057008;28;20466;-50
2021/09/12 10:33:24;;;;;;;7.17;5.70;;;21.90;99.90;;;;;;5057704;28;20763;-53
2021/09/12 10:36:00;;;;;;;8.03;5.43;;;22.10;99.90;;;;;;5057357;28;20556;-55
2021/09/12 10:38:30;;;;;;;5.93;5.10;;;22.20;99.90;;;;;;5057520;28;20811;-52
2021/09/12 10:41:18;;;;;;;5.97;5.40;;;22.00;99.90;;;;;;5057129;28;20507;-50
2021/09/12 10:43:52;;;;;;;5.53;5.03;;;21.70;99.90;;;;;;5057264;28;21023;-49
2021/09/12 10:46:34;;;;;;;5.77;5.20;;;21.50;99.90;;;;;;5056811;28;20465;-48
2021/09/12 10:49:13;;;;;;;7.90;5.40;;;21.30;99.90;;;;;;5044401;28;20544;-52
2021/09/12 10:51:41;;;;;;;10.53;5.37;;;21.70;99.90;;;;;;5057758;28;20454;-52
2021/09/12 10:54:11;;;;;;;6.50;5.40;;;22.00;99.90;;;;;;5056944;28;20738;-54
2021/09/12 10:56:41;;;;;;;9.77;4.53;;;22.00;99.90;;;;;;5057006;28;20500;-49
2021/09/12 10:59:11;;;;;;;5.40;4.63;;;22.10;99.90;;;;;;5057421;28;20751;-47
2021/09/12 11:01:42;;;;;;;8.40;5.40;;;22.00;99.90;;;;;;5057134;28;20929;-46
2021/09/12 11:04:10;;;;;;;5.17;4.67;;;21.70;99.90;;;;;;5056583;28;20935;-47
2021/09/12 11:06:39;;;;;;;7.10;4.97;;;21.40;99.90;;;;;;5056626;28;20462;-47
2021/09/12 11:09:18;;;;;;;5.50;5.00;;;21.10;99.90;;;;;;5056821;28;20462;-48
2021/09/12 11:11:59;;;;;;;6.70;5.00;;;21.00;99.90;;;;;;5055277;28;20842;-49
2021/09/12 11:14:30;;;;;;;6.10;5.50;;;21.20;99.90;;;;;;5056225;28;20458;-51
2021/09/12 11:17:08;;;;;;;8.53;5.63;;;21.60;99.90;;;;;;5056600;28;20566;-52
2021/09/12 11:19:35;;;;;;;8.37;5.57;;;21.40;99.90;;;;;;5056946;28;20494;-47
2021/09/12 11:22:02;;;;;;;9.63;5.00;;;21.50;99.90;;;;;;5055328;28;20490;-46
2021/09/12 11:24:30;;;;;;;5.30;4.80;;;21.60;99.90;;;;;;5056389;28;20497;-48
2021/09/12 11:27:00;;;;;;;6.13;5.63;;;21.80;99.90;;;;;;5056672;28;20437;-51
2021/09/12 11:29:30;;;;;;;6.33;5.70;;;21.70;99.90;;;;;;5056860;28;20462;-49
2021/09/12 11:32:04;;;;;;;5.57;5.00;;;21.90;99.90;;;;;;5056954;28;20482;-54
2021/09/12 11:34:32;;;;;;;8.40;5.47;;;22.20;99.90;;;;;;5056267;28;20494;-57
2021/09/12 11:37:07;;;;;;;6.33;4.77;;;22.60;99.90;;;;;;5056747;28;20501;-52
2021/09/12 11:39:37;;;;;;;5.97;4.40;;;22.40;99.90;;;;;;5056283;28;20545;-52
2021/09/12 11:42:12;;;;;;;8.83;5.00;;;22.10;99.90;;;;;;5056907;28;20516;-55
2021/09/12 11:44:44;;;;;;;5.70;4.80;;;22.00;99.90;;;;;;5053293;28;20493;-52
2021/09/12 11:47:15;;;;;;;11.47;5.23;;;21.80;99.90;;;;;;5056448;28;20939;-51
2021/09/12 11:49:43;;;;;;;6.57;5.33;;;21.80;99.90;;;;;;5056471;28;20493;-50
2021/09/12 11:52:11;;;;;;;6.57;4.30;;;22.40;99.90;;;;;;5055586;28;20478;-49
2021/09/12 11:54:39;;;;;;;8.10;5.87;;;23.30;99.90;;;;;;5051595;28;20513;-50
2021/09/12 11:57:11;;;;;;;5.70;3.87;;;23.90;99.90;;;;;;5057152;28;20466;-54
2021/09/12 11:59:42;;;;;;;5.77;3.83;;;24.10;99.90;;;;;;5063255;28;20896;-56
2021/09/12 12:02:12;;;;;;;5.13;4.63;;;23.90;99.90;;;;;;5058953;28;20827;-55
2021/09/12 12:04:43;;;;;;;9.90;5.07;;;23.90;99.90;;;;;;5055566;28;20551;-48
2021/09/12 12:07:13;;;;;;;7.00;5.30;;;23.40;99.90;;;;;;5036088;28;20459;-46
2021/09/12 12:09:42;;;;;;;5.60;4.90;;;23.00;99.90;;;;;;5055538;28;20489;-52
2021/09/12 12:12:14;;;;;;;7.07;5.83;;;22.80;99.90;;;;;;5055405;28;20465;-51
2021/09/12 12:14:47;;;;;;;5.37;4.87;;;23.40;99.90;;;;;;5056098;28;20454;-46
2021/09/12 12:17:16;;;;;;;7.13;4.93;;;23.10;99.90;;;;;;5056287;28;20458;-46
2021/09/12 12:19:43;;;;;;;7.17;5.43;;;23.30;99.90;;;;;;5056204;28;20454;-47
2021/09/12 12:22:10;;;;;;;5.40;5.00;;;24.00;99.90;;;;;;5055651;28;20489;-50
2021/09/12 12:24:39;;;;;;;5.17;4.67;;;24.30;99.90;;;;;;5055817;28;20556;-52
2021/09/12 12:27:11;;;;;;;5.40;4.90;;;24.30;99.90;;;;;;5056022;28;20520;-49
2021/09/12 12:29:42;;;;;;;13.23;5.93;;;24.10;99.90;;;;;;5056373;28;20864;-49
2021/09/12 12:32:14;;;;;;;7.80;4.87;;;23.30;99.90;;;;;;5057728;28;20502;-50
2021/09/12 12:34:46;;;;;;;5.70;5.10;;;22.50;99.90;;;;;;5072080;28;20705;-49
2021/09/12 12:37:15;;;;;;;4.80;4.30;;;23.10;99.90;;;;;;5059703;28;20480;-52
2021/09/12 12:39:43;;;;;;;5.23;4.30;;;23.30;99.90;;;;;;5059270;28;20793;-54
2021/09/12 12:42:10;;;;;;;5.33;4.60;;;23.10;99.90;;;;;;5058206;28;20772;-50
2021/09/12 12:44:46;;;;;;;6.83;3.90;;;22.90;99.90;;;;;;5059269;28;20517;-53
2021/09/12 12:47:28;;;;;;;5.47;4.70;;;22.90;99.90;;;;;;5059809;28;20820;-50